Time;durP1;ratioP1;P1;durP2;ratioP2;P2;SDS_P1;SDS_P2;PMS_P1;PMS_P2;Temp;Humidity;BMP_temperature;BMP_pressure;BME280_temperature;BME280_humidity;BME280_pressure;Samples;Min_cycle;Max_cycle;Signal;HPM_P1;HPM_P2
2024/02/29 00:02:22;;;;;;;21.50;14.43;;;;;;;6.18;100.00;101497.63;5052629;28;20447;-76
2024/02/29 00:04:47;;;;;;;29.63;13.50;;;;;;;6.15;100.00;101498.66;5034613;28;20029;-76
2024/02/29 00:07:13;;;;;;;26.25;13.65;;;;;;;6.14;100.00;101483.72;5052570;28;20051;-76
2024/02/29 00:09:39;;;;;;;24.00;14.15;;;;;;;6.16;100.00;101489.75;5052392;28;20051;-75
2024/02/29 00:12:05;;;;;;;27.35;15.35;;;;;;;6.17;100.00;101487.97;5052842;28;20033;-76
2024/02/29 00:14:31;;;;;;;28.55;14.93;;;;;;;6.16;100.00;101491.56;5053943;28;20108;-76
2024/02/29 00:16:58;;;;;;;26.05;14.80;;;;;;;6.17;100.00;101485.34;5054128;28;20098;-75
2024/02/29 00:19:23;;;;;;;27.33;15.38;;;;;;;6.16;100.00;101470.41;5052980;28;20033;-75
2024/02/29 00:21:49;;;;;;;22.02;15.32;;;;;;;6.19;100.00;101478.16;5053266;28;20029;-76
2024/02/29 00:24:15;;;;;;;26.45;15.20;;;;;;;6.16;100.00;101473.06;5055385;28;20104;-77
2024/02/29 00:26:41;;;;;;;28.30;16.40;;;;;;;6.15;100.00;101469.59;5056530;28;20554;-77
2024/02/29 00:29:07;;;;;;;30.77;15.57;;;;;;;6.15;100.00;101466.06;5057289;28;20056;-76
2024/02/29 00:31:33;;;;;;;26.17;15.68;;;;;;;6.15;100.00;101472.22;5056559;28;20029;-76
2024/02/29 00:33:59;;;;;;;35.30;16.80;;;;;;;6.14;100.00;101470.50;5056564;28;20057;-74
2024/02/29 00:36:24;;;;;;;25.88;17.05;;;;;;;6.15;100.00;101471.34;5056860;28;20129;-76
2024/02/29 00:38:50;;;;;;;27.73;16.77;;;;;;;6.14;100.00;101469.69;5056046;28;20029;-76
2024/02/29 00:41:15;;;;;;;28.67;17.88;;;;;;;6.15;100.00;101468.72;5056460;28;20116;-76
2024/02/29 00:43:41;;;;;;;28.52;16.75;;;;;;;6.14;100.00;101461.75;5056746;28;20061;-78
2024/02/29 00:46:07;;;;;;;29.48;17.58;;;;;;;6.13;100.00;101457.41;5056987;28;20027;-76
2024/02/29 00:48:33;;;;;;;27.85;17.02;;;;;;;6.13;100.00;101454.75;5054894;28;20049;-76
2024/02/29 00:50:58;;;;;;;29.77;17.30;;;;;;;6.09;100.00;101455.88;5056385;28;20148;-76
2024/02/29 00:53:23;;;;;;;38.40;17.73;;;;;;;6.08;100.00;101456.84;5056205;28;20033;-76
2024/02/29 00:55:49;;;;;;;34.10;16.73;;;;;;;6.05;100.00;101449.13;5054695;28;20029;-75
2024/02/29 00:58:15;;;;;;;32.35;17.92;;;;;;;6.02;100.00;101449.28;5055956;28;20091;-76
2024/02/29 01:00:40;;;;;;;30.48;17.65;;;;;;;5.99;100.00;101448.53;5055904;28;20475;-76
2024/02/29 01:03:06;;;;;;;29.20;17.80;;;;;;;5.96;100.00;101443.41;5056029;28;20113;-76
2024/02/29 01:05:31;;;;;;;31.60;18.25;;;;;;;5.93;100.00;101435.69;5056134;28;20418;-75
2024/02/29 01:07:57;;;;;;;33.33;18.00;;;;;;;5.87;100.00;101437.81;5056540;28;20518;-76
2024/02/29 01:10:23;;;;;;;29.10;17.25;;;;;;;5.82;100.00;101435.47;5055726;28;20112;-76
2024/02/29 01:12:49;;;;;;;32.20;18.42;;;;;;;5.75;100.00;101434.16;5055590;28;20028;-77
2024/02/29 01:15:15;;;;;;;35.13;19.23;;;;;;;5.67;100.00;101433.78;5054531;28;20539;-76
2024/02/29 01:17:42;;;;;;;35.95;19.48;;;;;;;5.60;100.00;101414.81;5055384;28;20029;-76
2024/02/29 01:20:08;;;;;;;36.25;19.60;;;;;;;5.55;100.00;101430.06;5056115;28;20414;-77
2024/02/29 01:22:35;;;;;;;38.50;18.92;;;;;;;5.48;100.00;101419.88;5054727;28;20394;-75
2024/02/29 01:25:00;;;;;;;32.97;19.08;;;;;;;5.43;100.00;101419.31;5055421;28;20028;-74
2024/02/29 01:27:26;;;;;;;38.17;19.77;;;;;;;5.40;100.00;101422.13;5056218;28;20352;-76
2024/02/29 01:29:51;;;;;;;38.65;19.50;;;;;;;5.39;100.00;101423.09;5056899;28;20029;-77
2024/02/29 01:32:16;;;;;;;37.50;19.33;;;;;;;5.37;100.00;101408.28;5055760;28;20382;-75
2024/02/29 01:34:42;;;;;;;35.50;19.55;;;;;;;5.36;100.00;101411.84;5053385;28;20029;-75
2024/02/29 01:37:07;;;;;;;38.45;19.25;;;;;;;5.35;100.00;101410.16;5054937;28;20069;-77
2024/02/29 01:39:33;;;;;;;40.38;20.13;;;;;;;5.34;100.00;101413.72;5053944;28;20040;-76
2024/02/29 01:41:59;;;;;;;41.28;20.02;;;;;;;5.34;100.00;101401.38;5055289;28;20036;-76
2024/02/29 01:44:26;;;;;;;39.50;20.00;;;;;;;5.33;100.00;101406.75;5055374;28;20426;-76
2024/02/29 01:46:52;;;;;;;41.85;20.90;;;;;;;5.32;100.00;101397.16;5055467;28;20033;-76
2024/02/29 01:49:18;;;;;;;42.60;20.45;;;;;;;5.32;100.00;101390.06;5058198;28;20082;-76
2024/02/29 01:51:44;;;;;;;39.58;20.65;;;;;;;5.31;100.00;101385.72;5056178;28;20037;-76
2024/02/29 01:54:10;;;;;;;40.03;20.20;;;;;;;5.33;100.00;101385.63;5057356;28;20029;-76
2024/02/29 01:56:36;;;;;;;44.95;20.23;;;;;;;5.33;100.00;101383.88;5058987;28;20074;-76
2024/02/29 01:59:04;;;;;;;39.72;20.55;;;;;;;5.36;100.00;101375.75;5059312;28;20360;-76
2024/02/29 02:01:30;;;;;;;37.95;21.63;;;;;;;5.39;100.00;101364.16;5060340;28;20044;-76
2024/02/29 02:03:55;;;;;;;44.33;21.08;;;;;;;5.42;100.00;101361.31;5060539;28;20451;-76
2024/02/29 02:06:20;;;;;;;35.72;19.85;;;;;;;5.43;100.00;101361.25;5061227;28;20362;-76
2024/02/29 02:08:46;;;;;;;36.67;19.33;;;;;;;5.46;100.00;101360.22;5060686;28;20078;-77
2024/02/29 02:11:11;;;;;;;35.78;19.33;;;;;;;5.48;100.00;101358.34;5062076;28;20055;-75
2024/02/29 02:13:38;;;;;;;41.83;20.27;;;;;;;5.48;100.00;101351.25;5057493;28;20044;-76
2024/02/29 02:16:04;;;;;;;35.80;20.75;;;;;;;5.53;100.00;101360.69;5055685;28;20036;-76
2024/02/29 02:18:29;;;;;;;44.75;20.50;;;;;;;5.54;100.00;101355.31;5055197;28;20425;-76
2024/02/29 02:20:55;;;;;;;39.42;21.00;;;;;;;5.56;100.00;101352.59;5054581;28;20513;-77
2024/02/29 02:23:23;;;;;;;43.65;20.60;;;;;;;5.55;100.00;101349.06;5054657;28;20048;-75
2024/02/29 02:25:49;;;;;;;36.58;20.48;;;;;;;5.56;100.00;101345.50;5055189;28;20029;-76
2024/02/29 02:28:14;;;;;;;40.90;21.70;;;;;;;5.57;100.00;101341.06;5053859;28;20130;-76
2024/02/29 02:30:40;;;;;;;40.30;22.10;;;;;;;5.57;100.00;101338.44;5054109;28;20021;-76
2024/02/29 02:33:05;;;;;;;44.13;22.67;;;;;;;5.57;100.00;101336.66;5055021;28;20083;-76
2024/02/29 02:35:34;;;;;;;42.53;21.75;;;;;;;5.58;100.00;101343.63;5055261;28;20076;-76
2024/02/29 02:38:03;;;;;;;45.15;22.85;;;;;;;5.58;100.00;101334.84;5054198;28;20372;-75
2024/02/29 02:40:29;;;;;;;40.53;21.52;;;;;;;5.59;100.00;101334.75;5053056;28;20578;-77
2024/02/29 02:42:54;;;;;;;44.40;22.70;;;;;;;5.62;100.00;101329.28;5054531;28;20036;-75
2024/02/29 02:45:20;;;;;;;46.92;22.58;;;;;;;5.63;100.00;101325.72;5054239;28;20027;-75
2024/02/29 02:47:45;;;;;;;37.75;21.27;;;;;;;5.64;100.00;101318.63;5053381;28;20136;-76
2024/02/29 02:50:11;;;;;;;39.70;21.60;;;;;;;5.66;100.00;101324.69;5054266;28;20032;-76
2024/02/29 02:52:37;;;;;;;46.58;22.63;;;;;;;5.69;100.00;101320.97;5053818;28;20021;-76
2024/02/29 02:55:03;;;;;;;39.35;21.75;;;;;;;5.70;100.00;101312.13;5053659;28;20383;-77
2024/02/29 02:57:28;;;;;;;37.83;21.33;;;;;;;5.70;100.00;101310.31;5053804;28;20033;-76
2024/02/29 02:59:54;;;;;;;35.75;21.27;;;;;;;5.69;100.00;101303.38;5052332;28;20094;-76
2024/02/29 03:02:19;;;;;;;39.67;21.30;;;;;;;5.72;100.00;101302.31;5052223;28;20089;-77
2024/02/29 03:04:44;;;;;;;43.55;22.55;;;;;;;5.73;100.00;101290.81;5053664;28;20496;-77
2024/02/29 03:07:10;;;;;;;39.55;22.00;;;;;;;5.74;100.00;101300.44;5053942;28;20029;-77
2024/02/29 03:09:35;;;;;;;41.72;22.05;;;;;;;5.73;100.00;101289.03;5053376;28;20017;-76
2024/02/29 03:12:01;;;;;;;45.70;22.95;;;;;;;5.73;100.00;101294.31;5053558;28;20064;-75
2024/02/29 03:14:26;;;;;;;46.03;22.75;;;;;;;5.73;100.00;101282.88;5052832;28;20421;-78
2024/02/29 03:16:51;;;;;;;43.95;21.88;;;;;;;5.75;100.00;101284.50;5053605;28;20079;-76
2024/02/29 03:19:17;;;;;;;39.83;22.42;;;;;;;5.75;100.00;101288.94;5053690;28;20374;-76
2024/02/29 03:21:43;;;;;;;35.78;20.13;;;;;;;5.76;100.00;101283.56;5053859;28;20037;-77
2024/02/29 03:24:09;;;;;;;39.92;20.98;;;;;;;5.78;100.00;101281.66;5052549;28;20071;-76
2024/02/29 03:26:34;;;;;;;39.55;21.02;;;;;;;5.75;100.00;101267.81;5053266;28;20061;-77
2024/02/29 03:28:59;;;;;;;40.63;22.17;;;;;;;5.76;100.00;101272.13;5053184;28;20471;-76
2024/02/29 03:31:25;;;;;;;38.53;22.02;;;;;;;5.76;100.00;101259.78;5035214;28;20040;-77
2024/02/29 03:33:50;;;;;;;47.13;22.58;;;;;;;5.75;100.00;101263.38;5053024;28;20420;-76
2024/02/29 03:36:16;;;;;;;38.08;22.50;;;;;;;5.76;100.00;101251.88;5053036;28;20029;-77
2024/02/29 03:38:41;;;;;;;34.50;21.00;;;;;;;5.79;100.00;101251.66;5053060;28;20079;-76
2024/02/29 03:41:06;;;;;;;37.25;21.20;;;;;;;5.78;100.00;101247.31;5053108;28;20032;-76
2024/02/29 03:43:34;;;;;;;42.17;22.10;;;;;;;5.80;100.00;101244.59;5053087;28;20054;-76
2024/02/29 03:46:00;;;;;;;37.75;20.85;;;;;;;5.80;100.00;101247.22;5053005;28;20057;-76
2024/02/29 03:48:25;;;;;;;36.88;21.50;;;;;;;5.78;100.00;101244.69;5051666;28;20064;-77
2024/02/29 03:50:52;;;;;;;46.00;22.52;;;;;;;5.79;100.00;101227.91;5051751;28;20029;-78
2024/02/29 03:53:18;;;;;;;36.83;21.27;;;;;;;5.80;100.00;101231.38;5052994;28;20039;-77
2024/02/29 03:55:45;;;;;;;38.20;21.05;;;;;;;5.83;100.00;101231.19;5052980;28;20028;-76
2024/02/29 03:58:11;;;;;;;37.65;20.27;;;;;;;5.83;100.00;101224.09;5053447;28;20398;-77
2024/02/29 04:00:36;;;;;;;36.33;20.52;;;;;;;5.87;100.00;101215.97;5057001;28;20112;-77
2024/02/29 04:03:02;;;;;;;39.40;20.77;;;;;;;5.88;100.00;101207.97;5057224;28;20029;-77
2024/02/29 04:05:27;;;;;;;30.98;19.90;;;;;;;5.89;100.00;101209.66;5055662;28;20491;-78
2024/02/29 04:08:00;;;;;;;36.20;19.75;;;;;;;5.92;100.00;101203.34;5057231;28;20120;-78
2024/02/29 04:10:27;;;;;;;30.45;19.20;;;;;;;5.91;100.00;101205.13;5057120;28;20101;-79
2024/02/29 04:12:52;;;;;;;33.25;19.25;;;;;;;5.94;100.00;101202.31;5057098;28;20067;-77
2024/02/29 04:15:18;;;;;;;30.35;18.17;;;;;;;5.98;100.00;101208.25;5038804;28;20491;-78
2024/02/29 04:17:43;;;;;;;31.75;18.88;;;;;;;6.02;100.00;101200.94;5056515;28;20420;-78
2024/02/29 04:20:09;;;;;;;28.70;18.52;;;;;;;6.02;100.00;101198.31;5056919;28;20029;-78
2024/02/29 04:22:34;;;;;;;28.67;18.63;;;;;;;6.04;100.00;101201.72;5056667;28;20486;-77
2024/02/29 04:24:59;;;;;;;32.50;18.52;;;;;;;6.06;100.00;101189.25;5057190;28;20112;-77
2024/02/29 04:27:25;;;;;;;31.13;19.40;;;;;;;6.10;100.00;101193.38;5056436;28;20025;-78
2024/02/29 04:29:50;;;;;;;29.98;18.67;;;;;;;6.12;100.00;101184.41;5056497;28;20108;-77
2024/02/29 04:32:15;;;;;;;31.08;18.10;;;;;;;6.14;100.00;101189.59;5055163;28;20037;-78
2024/02/29 04:34:42;;;;;;;35.75;19.35;;;;;;;6.17;100.00;101189.41;5056880;28;20029;-77
2024/02/29 04:37:07;;;;;;;29.77;18.33;;;;;;;6.19;100.00;101184.84;5056658;28;20032;-77
2024/02/29 04:39:33;;;;;;;31.85;18.20;;;;;;;6.22;100.00;101184.63;5056197;28;20476;-78
2024/02/29 04:41:58;;;;;;;29.52;18.05;;;;;;;6.23;100.00;101181.06;5056392;28;20033;-78
2024/02/29 04:44:24;;;;;;;31.73;19.25;;;;;;;6.23;100.00;101180.22;5054932;28;20037;-77
2024/02/29 04:46:49;;;;;;;33.53;19.17;;;;;;;6.23;100.00;101175.78;5055131;28;20029;-78
2024/02/29 04:49:15;;;;;;;27.30;18.35;;;;;;;6.21;100.00;101172.41;5056720;28;20029;-78
2024/02/29 04:51:40;;;;;;;29.55;17.83;;;;;;;6.18;100.00;101173.44;5056389;28;20383;-78
2024/02/29 04:54:05;;;;;;;30.48;18.33;;;;;;;6.19;100.00;101169.00;5056311;28;20040;-77
2024/02/29 04:56:31;;;;;;;36.15;18.38;;;;;;;6.17;100.00;101160.34;5056332;28;20356;-77
2024/02/29 04:58:56;;;;;;;33.70;18.10;;;;;;;6.15;100.00;101171.00;5056729;28;20033;-77
2024/02/29 05:01:22;;;;;;;29.48;17.27;;;;;;;6.13;100.00;101164.97;5056297;28;20108;-77
2024/02/29 05:03:47;;;;;;;27.55;17.98;;;;;;;6.15;100.00;101162.22;5055762;28;20025;-77
2024/02/29 05:06:16;;;;;;;29.83;18.52;;;;;;;6.15;100.00;101164.84;5056263;28;20025;-77
2024/02/29 05:08:42;;;;;;;31.95;19.30;;;;;;;6.16;100.00;101155.97;5054780;28;20049;-77
2024/02/29 05:11:10;;;;;;;29.15;18.85;;;;;;;6.14;100.00;101155.25;5055696;28;20020;-77
2024/02/29 05:13:36;;;;;;;33.33;19.50;;;;;;;6.15;100.00;101146.34;5056061;28;20033;-78
2024/02/29 05:16:05;;;;;;;35.40;19.23;;;;;;;6.14;100.00;101152.59;5055695;28;20359;-79
2024/02/29 05:18:31;;;;;;;34.78;19.90;;;;;;;6.13;100.00;101145.63;5055966;28;20524;-77
2024/02/29 05:20:56;;;;;;;37.80;19.75;;;;;;;6.12;100.00;101154.50;5055509;28;20029;-78
2024/02/29 05:23:22;;;;;;;31.83;20.15;;;;;;;6.12;100.00;101144.78;5054102;28;20493;-77
2024/02/29 05:25:47;;;;;;;29.70;18.63;;;;;;;6.11;100.00;101139.59;5055665;28;20045;-78
2024/02/29 05:28:13;;;;;;;39.83;19.70;;;;;;;6.12;100.00;101133.34;5055540;28;20439;-78
2024/02/29 05:30:38;;;;;;;35.97;19.45;;;;;;;6.09;100.00;101130.91;5054268;28;20406;-78
2024/02/29 05:33:04;;;;;;;34.22;20.10;;;;;;;6.09;100.00;101129.16;5054159;28;20127;-79
2024/02/29 05:35:29;;;;;;;34.13;19.83;;;;;;;6.07;100.00;101138.94;5055501;28;20061;-77
2024/02/29 05:37:55;;;;;;;31.17;18.13;;;;;;;6.07;100.00;101130.19;5055585;28;20098;-78
2024/02/29 05:40:20;;;;;;;33.03;19.05;;;;;;;6.05;100.00;101118.88;5055899;28;20029;-78
2024/02/29 05:42:46;;;;;;;32.95;19.75;;;;;;;6.04;100.00;101128.59;5055311;28;20024;-79
2024/02/29 05:45:12;;;;;;;34.42;19.23;;;;;;;6.03;100.00;101124.28;5054052;28;20501;-79
2024/02/29 05:47:38;;;;;;;32.17;19.90;;;;;;;6.02;100.00;101125.22;5055014;28;20088;-79
2024/02/29 05:50:05;;;;;;;32.15;20.30;;;;;;;6.02;100.00;101122.56;5055368;28;20037;-79
2024/02/29 05:52:30;;;;;;;33.63;19.48;;;;;;;6.02;100.00;101121.72;5055434;28;20025;-79
2024/02/29 05:54:56;;;;;;;34.88;20.00;;;;;;;6.02;100.00;101119.94;5055554;28;20383;-79
2024/02/29 05:57:24;;;;;;;37.22;19.92;;;;;;;6.00;100.00;101117.41;5055324;28;20040;-78
2024/02/29 05:59:49;;;;;;;36.38;21.10;;;;;;;5.98;100.00;101110.50;5053865;28;20029;-78
2024/02/29 06:02:15;;;;;;;34.67;20.98;;;;;;;5.98;100.00;101115.78;5055431;28;20066;-78
2024/02/29 06:04:40;;;;;;;37.92;21.00;;;;;;;5.97;100.00;101114.97;5054016;28;20031;-78
2024/02/29 06:07:06;;;;;;;36.80;21.42;;;;;;;5.99;100.00;101117.50;5055286;28;20064;-78
2024/02/29 06:09:35;;;;;;;38.20;21.38;;;;;;;5.96;100.00;101110.59;5037289;28;20071;-79
2024/02/29 06:12:01;;;;;;;40.72;22.27;;;;;;;5.96;100.00;101110.59;5053688;28;20039;-80
2024/02/29 06:14:26;;;;;;;36.78;21.45;;;;;;;5.97;100.00;101111.44;5055242;28;20036;-80
2024/02/29 06:16:52;;;;;;;36.72;21.15;;;;;;;5.96;100.00;101110.59;5055080;28;20033;-80
2024/02/29 06:19:17;;;;;;;36.53;20.65;;;;;;;5.97;100.00;101119.38;5036862;28;20471;-80
2024/02/29 06:21:42;;;;;;;37.72;22.35;;;;;;;5.97;100.00;101108.81;5053813;28;20040;-80
2024/02/29 06:24:08;;;;;;;41.10;22.67;;;;;;;5.99;100.00;101109.56;5055050;28;20436;-80
2024/02/29 06:26:34;;;;;;;40.85;22.63;;;;;;;5.97;100.00;101109.69;5053145;28;20041;-79
2024/02/29 06:29:00;;;;;;;45.33;22.90;;;;;;;5.98;100.00;101107.88;5054822;28;20066;-80
2024/02/29 06:31:26;;;;;;;40.30;22.27;;;;;;;5.98;100.00;101113.16;5036616;28;20025;-81
2024/02/29 06:33:51;;;;;;;36.58;22.23;;;;;;;6.00;100.00;101104.19;5053192;28;20029;-80
2024/02/29 06:36:17;;;;;;;39.05;22.52;;;;;;;5.98;100.00;101107.88;5053047;28;20024;-80
2024/02/29 06:38:42;;;;;;;38.40;21.48;;;;;;;5.98;100.00;101108.72;5054174;28;20043;-80
2024/02/29 06:41:09;;;;;;;39.03;21.83;;;;;;;5.98;100.00;101100.78;5054209;28;20021;-80
2024/02/29 06:43:34;;;;;;;37.08;22.20;;;;;;;5.98;100.00;101100.78;5053817;28;20119;-80
2024/02/29 06:46:04;;;;;;;39.58;21.92;;;;;;;5.98;100.00;101103.44;5052366;28;20116;-78
2024/02/29 06:48:30;;;;;;;37.38;21.95;;;;;;;5.97;100.00;101096.47;5053602;28;20062;-78
2024/02/29 06:50:56;;;;;;;36.90;22.02;;;;;;;5.98;100.00;101092.03;5053474;28;20021;-77
2024/02/29 06:53:22;;;;;;;40.60;22.65;;;;;;;5.97;100.00;101101.75;5053569;28;20406;-79
2024/02/29 06:55:47;;;;;;;32.95;20.73;;;;;;;5.97;100.00;101099.13;5054151;28;20108;-79
2024/02/29 06:58:13;;;;;;;36.38;21.95;;;;;;;5.98;100.00;101098.13;5052378;28;20053;-79
2024/02/29 07:00:39;;;;;;;40.25;22.10;;;;;;;5.99;100.00;101091.09;5053669;28;20029;-80
2024/02/29 07:03:05;;;;;;;39.00;22.27;;;;;;;5.99;100.00;101093.72;5054417;28;20028;-80
2024/02/29 07:05:30;;;;;;;36.95;20.60;;;;;;;5.98;100.00;101090.22;5053943;28;20036;-78
2024/02/29 07:07:56;;;;;;;36.15;20.85;;;;;;;5.97;100.00;101093.84;5053464;28;20027;-78
2024/02/29 07:10:21;;;;;;;38.58;20.92;;;;;;;5.98;100.00;101092.03;5053653;28;20028;-79
2024/02/29 07:12:47;;;;;;;36.88;21.30;;;;;;;6.00;100.00;101096.25;5053300;28;20397;-79
2024/02/29 07:15:13;;;;;;;39.85;20.60;;;;;;;6.03;100.00;101104.91;5052084;28;20044;-78
2024/02/29 07:17:38;;;;;;;35.60;21.63;;;;;;;6.02;100.00;101093.50;5053251;28;20467;-79
2024/02/29 07:20:04;;;;;;;36.28;21.40;;;;;;;6.04;100.00;101101.34;5053472;28;20025;-79
2024/02/29 07:22:42;;;;;;;37.72;21.80;;;;;;;6.05;100.00;101098.59;5052906;28;20386;-79
2024/02/29 07:25:08;;;;;;;37.88;22.05;;;;;;;6.05;100.00;101097.75;5053311;28;20435;-78
2024/02/29 07:27:39;;;;;;;40.10;22.50;;;;;;;6.07;100.00;101096.69;5051745;28;20071;-78
2024/02/29 07:30:08;;;;;;;39.20;22.27;;;;;;;6.08;100.00;101090.47;5053593;28;20029;-78
2024/02/29 07:32:33;;;;;;;36.70;22.42;;;;;;;6.09;100.00;101088.66;5053865;28;20390;-79
2024/02/29 07:41:43;;;;;;;41.28;22.35;;;;;;;6.20;100.00;101088.78;5016861;28;20118;-79
2024/02/29 07:44:09;;;;;;;40.25;22.08;;;;;;;6.21;100.00;101087.84;5052942;28;20442;-79
2024/02/29 07:46:35;;;;;;;39.70;22.10;;;;;;;6.23;100.00;101082.44;5052905;28;20036;-79
2024/02/29 07:49:01;;;;;;;37.25;22.08;;;;;;;6.24;100.00;101073.56;5052982;28;20074;-79
2024/02/29 07:51:26;;;;;;;38.58;22.60;;;;;;;6.26;100.00;101085.72;5052714;28;20036;-79
2024/02/29 07:53:51;;;;;;;39.58;22.10;;;;;;;6.25;100.00;101080.53;5053347;28;20029;-80
2024/02/29 07:56:18;;;;;;;35.75;21.55;;;;;;;6.25;100.00;101073.44;5051936;28;20397;-80
2024/02/29 07:58:43;;;;;;;36.83;21.75;;;;;;;6.25;100.00;101078.72;5053310;28;20020;-80
2024/02/29 08:01:08;;;;;;;41.17;22.80;;;;;;;6.25;100.00;101072.59;5035299;28;20036;-81
2024/02/29 08:03:34;;;;;;;39.92;22.02;;;;;;;6.26;100.00;101079.59;5053534;28;20036;-81
2024/02/29 08:05:59;;;;;;;38.60;21.42;;;;;;;6.28;100.00;101077.69;5052975;28;20043;-79
2024/02/29 08:08:25;;;;;;;35.97;21.48;;;;;;;6.28;100.00;101078.50;5053172;28;20036;-80
2024/02/29 08:10:50;;;;;;;37.38;20.67;;;;;;;6.31;100.00;101088.88;5051806;28;20033;-79
2024/02/29 08:13:15;;;;;;;36.05;21.48;;;;;;;6.33;100.00;101071.13;5051872;28;20021;-80
2024/02/29 08:15:41;;;;;;;38.60;21.25;;;;;;;6.37;100.00;101079.69;5051901;28;20025;-81
2024/02/29 08:18:07;;;;;;;36.63;20.80;;;;;;;6.36;100.00;101080.66;5051981;28;20029;-81
2024/02/29 08:20:33;;;;;;;32.80;20.35;;;;;;;6.40;100.00;101076.00;5053166;28;20033;-80
2024/02/29 08:22:58;;;;;;;32.10;20.25;;;;;;;6.42;100.00;101077.59;5054322;28;20055;-80
2024/02/29 08:25:25;;;;;;;33.22;20.35;;;;;;;6.44;100.00;101075.66;5053164;28;20037;-81
2024/02/29 08:27:51;;;;;;;30.77;20.15;;;;;;;6.44;100.00;101077.47;5053137;28;20028;-81
2024/02/29 08:30:17;;;;;;;32.67;19.20;;;;;;;6.45;100.00;101071.22;5053245;28;20436;-81
2024/02/29 08:32:42;;;;;;;37.33;19.58;;;;;;;6.46;100.00;101072.91;5052005;28;20057;-81
2024/02/29 08:35:08;;;;;;;32.15;18.73;;;;;;;6.45;100.00;101073.84;5051533;28;20483;-80
2024/02/29 08:37:34;;;;;;;30.73;18.90;;;;;;;6.46;100.00;101079.03;5053053;28;20036;-81
2024/02/29 08:39:59;;;;;;;31.67;19.42;;;;;;;6.45;100.00;101065.94;5052779;28;20025;-80
2024/02/29 08:42:25;;;;;;;31.35;18.48;;;;;;;6.44;100.00;101069.56;5054335;28;20037;-81
2024/02/29 08:44:51;;;;;;;27.60;18.25;;;;;;;6.46;100.00;101063.19;5055482;28;20112;-80
2024/02/29 08:47:17;;;;;;;32.13;19.02;;;;;;;6.46;100.00;101057.91;5057719;28;20048;-81
2024/02/29 08:49:45;;;;;;;28.83;17.50;;;;;;;6.46;100.00;101057.91;5057906;28;20035;-79
2024/02/29 08:52:11;;;;;;;29.38;18.65;;;;;;;6.48;100.00;101063.09;5056717;28;20466;-80
2024/02/29 08:54:36;;;;;;;31.48;18.25;;;;;;;6.49;100.00;101063.00;5056933;28;20047;-81
2024/02/29 08:57:04;;;;;;;26.52;17.77;;;;;;;6.50;100.00;101047.97;5056996;28;20396;-81
2024/02/29 08:59:29;;;;;;;33.30;18.02;;;;;;;6.49;100.00;101051.56;5057483;28;20367;-81
2024/02/29 09:01:55;;;;;;;31.55;18.42;;;;;;;6.51;100.00;101042.56;5058826;28;20028;-81
2024/02/29 09:04:21;;;;;;;28.55;18.48;;;;;;;6.53;100.00;101040.66;5060125;28;20025;-81
2024/02/29 09:06:46;;;;;;;29.40;18.08;;;;;;;6.57;100.00;101049.22;5056656;28;20537;-80
2024/02/29 09:09:12;;;;;;;35.80;16.83;;;;;;;6.60;100.00;101041.09;5064320;28;20044;-80
2024/02/29 09:11:38;;;;;;;27.65;17.73;;;;;;;6.62;100.00;101040.97;5073302;28;20032;-81
2024/02/29 09:14:03;;;;;;;27.95;17.05;;;;;;;6.62;100.00;101038.31;5075433;28;20059;-79
2024/02/29 09:16:29;;;;;;;26.77;16.23;;;;;;;6.62;100.00;101031.22;5078286;28;20080;-81
2024/02/29 09:18:56;;;;;;;28.05;15.85;;;;;;;6.63;100.00;101032.94;5073290;28;20033;-79
2024/02/29 09:21:22;;;;;;;26.30;16.77;;;;;;;6.65;100.00;101038.94;5078200;28;20025;-79
2024/02/29 09:23:49;;;;;;;30.10;16.10;;;;;;;6.64;100.00;101028.47;5078850;28;20020;-80
2024/02/29 09:26:16;;;;;;;25.17;17.00;;;;;;;6.66;100.00;101026.59;5077795;28;20032;-80
2024/02/29 09:28:42;;;;;;;28.10;16.02;;;;;;;6.67;100.00;101030.91;5063391;28;20032;-81
2024/02/29 09:31:07;;;;;;;30.15;17.08;;;;;;;6.68;100.00;101030.78;5058182;28;20394;-81
2024/02/29 09:33:33;;;;;;;26.77;16.90;;;;;;;6.69;100.00;101029.84;5057123;28;20493;-80
2024/02/29 09:35:58;;;;;;;22.85;15.98;;;;;;;6.71;100.00;101017.34;5056854;28;20443;-80
2024/02/29 09:38:24;;;;;;;26.73;17.70;;;;;;;6.72;100.00;101015.56;5057181;28;20053;-80
2024/02/29 09:40:51;;;;;;;29.35;18.75;;;;;;;6.73;100.00;101008.47;5057058;28;20021;-80
2024/02/29 09:43:16;;;;;;;28.20;17.85;;;;;;;6.75;100.00;101012.72;5056459;28;20040;-81
2024/02/29 09:45:42;;;;;;;26.63;17.35;;;;;;;6.78;100.00;101014.28;5056130;28;20092;-78
2024/02/29 09:48:10;;;;;;;27.35;17.58;;;;;;;6.74;100.00;101008.34;5055318;28;20063;-80
2024/02/29 09:50:36;;;;;;;28.52;17.73;;;;;;;6.74;100.00;101013.66;5055866;28;20027;-81
2024/02/29 09:53:01;;;;;;;26.60;17.63;;;;;;;6.76;100.00;101011.72;5055182;28;20057;-80
2024/02/29 09:55:30;;;;;;;29.60;17.58;;;;;;;6.76;100.00;100998.50;5055218;28;20365;-80
2024/02/29 09:57:58;;;;;;;33.20;18.35;;;;;;;6.77;100.00;101005.50;5053412;28;20053;-80
2024/02/29 10:00:25;;;;;;;27.25;17.25;;;;;;;6.76;100.00;101000.31;5054106;28;20032;-80
2024/02/29 10:02:51;;;;;;;24.60;16.20;;;;;;;6.80;100.00;101004.44;5055017;28;20502;-80
2024/02/29 10:05:17;;;;;;;29.15;17.00;;;;;;;6.84;100.00;101001.47;5054879;28;20029;-79
2024/02/29 10:07:47;;;;;;;26.00;17.42;;;;;;;6.86;100.00;101002.19;5055056;28;20079;-80
2024/02/29 10:10:14;;;;;;;23.17;15.57;;;;;;;6.87;100.00;100997.75;5055133;28;20104;-79
2024/02/29 10:12:40;;;;;;;23.35;15.40;;;;;;;6.90;100.00;101000.19;5055009;28;20028;-80
2024/02/29 10:15:10;;;;;;;22.55;15.25;;;;;;;6.88;100.00;100989.72;5053551;28;20029;-80
2024/02/29 10:17:36;;;;;;;23.17;14.75;;;;;;;6.91;100.00;100988.63;5053539;28;20033;-79
2024/02/29 10:20:03;;;;;;;20.98;14.70;;;;;;;6.92;100.00;100979.72;5054487;28;20581;-80
2024/02/29 10:22:29;;;;;;;22.25;14.77;;;;;;;6.97;100.00;100976.75;5037041;28;20025;-79
2024/02/29 10:24:54;;;;;;;20.70;13.70;;;;;;;6.98;100.00;100979.28;5055269;28;20434;-80
2024/02/29 10:27:22;;;;;;;23.33;14.90;;;;;;;7.02;100.00;100982.56;5054719;28;20112;-80
2024/02/29 10:29:50;;;;;;;18.42;13.77;;;;;;;7.02;100.00;100982.56;5054706;28;20032;-80
2024/02/29 10:32:16;;;;;;;20.00;14.10;;;;;;;7.06;100.00;100986.66;5053610;28;20045;-79
2024/02/29 10:34:41;;;;;;;17.42;13.15;;;;;;;7.06;100.00;100973.41;5054571;28;20430;-79
2024/02/29 10:37:07;;;;;;;21.00;13.90;;;;;;;7.09;100.00;100981.16;5054743;28;20083;-79
2024/02/29 10:39:34;;;;;;;19.00;12.38;;;;;;;7.10;100.00;100964.31;5054355;28;20091;-79
2024/02/29 10:42:03;;;;;;;17.77;12.70;;;;;;;7.15;100.00;100985.13;5054392;28;20021;-81
2024/02/29 10:44:32;;;;;;;18.90;11.80;;;;;;;7.15;100.00;100971.91;5052927;28;20033;-79
2024/02/29 10:47:07;;;;;;;15.45;11.10;;;;;;;7.14;100.00;100957.84;5053718;28;20090;-80
2024/02/29 10:49:45;;;;;;;14.57;10.32;;;;;;;7.14;100.00;100960.47;5053762;28;20079;-79
2024/02/29 10:52:19;;;;;;;14.88;10.85;;;;;;;7.15;100.00;100956.03;5052297;28;20458;-79
2024/02/29 10:55:00;;;;;;;14.93;10.80;;;;;;;7.18;100.00;100954.00;5053532;28;20032;-79
2024/02/29 10:57:35;;;;;;;15.30;11.10;;;;;;;7.22;100.00;100958.09;5053440;28;20067;-78
2024/02/29 11:00:02;;;;;;;17.15;11.38;;;;;;;7.28;100.00;100951.50;5053493;28;20123;-78
2024/02/29 11:02:28;;;;;;;15.68;11.48;;;;;;;7.33;100.00;100954.66;5053811;28;20443;-79
2024/02/29 11:04:55;;;;;;;13.52;10.30;;;;;;;7.36;100.00;100945.63;5053869;28;20040;-79
2024/02/29 11:07:21;;;;;;;14.60;10.55;;;;;;;7.39;100.00;100950.72;5052971;28;20033;-79
2024/02/29 11:09:46;;;;;;;12.38;10.13;;;;;;;7.40;100.00;100940.03;5053567;28;20091;-79
2024/02/29 11:12:16;;;;;;;12.60;9.43;;;;;;;7.45;100.00;100946.75;5052113;28;20051;-80